createdAt,value
2022-11-12T00:00:26.040Z,7.30
2022-11-12T00:03:11.320Z,7.47
2022-11-12T00:05:56.674Z,6.33
2022-11-12T00:08:41.825Z,6.67
2022-11-12T00:11:27.109Z,7.03
2022-11-12T00:14:12.031Z,6.57
2022-11-12T00:16:57.028Z,6.37
2022-11-12T00:19:41.997Z,6.20
2022-11-12T00:22:27.366Z,7.13
2022-11-12T00:25:12.729Z,6.93
2022-11-12T00:28:04.922Z,7.17
2022-11-12T00:30:50.008Z,7.53
2022-11-12T00:33:35.325Z,6.23
2022-11-12T00:36:20.285Z,6.60
2022-11-12T00:39:05.551Z,7.47
2022-11-12T00:41:50.746Z,7.00
2022-11-12T00:44:35.814Z,6.53
2022-11-12T00:47:21.001Z,7.07
2022-11-12T00:50:06.509Z,7.17
2022-11-12T00:52:52.119Z,6.17
2022-11-12T00:55:36.958Z,6.83
2022-11-12T00:58:21.891Z,6.33
2022-11-12T01:01:08.392Z,5.97
2022-11-12T01:03:54.173Z,7.03
2022-11-12T01:06:40.745Z,7.00
2022-11-12T01:09:26.172Z,6.77
2022-11-12T01:12:11.259Z,6.30
2022-11-12T01:14:56.947Z,7.10
2022-11-12T01:17:42.070Z,6.57
2022-11-12T01:20:27.115Z,6.80
2022-11-12T01:23:12.259Z,6.63
2022-11-12T01:25:57.310Z,6.70
2022-11-12T01:28:43.054Z,6.90
2022-11-12T01:31:29.306Z,6.93
2022-11-12T01:34:14.327Z,6.67
2022-11-12T01:36:59.542Z,6.87
2022-11-12T01:39:44.735Z,7.30
2022-11-12T01:42:31.499Z,5.93
2022-11-12T01:45:16.685Z,6.87
2022-11-12T01:48:02.306Z,6.67
2022-11-12T01:50:47.440Z,6.33
2022-11-12T01:53:35.985Z,7.10
2022-11-12T01:56:22.558Z,6.47
2022-11-12T01:59:33.674Z,6.53
2022-11-12T02:02:19.070Z,7.60
2022-11-12T02:05:05.970Z,6.53
2022-11-12T02:07:51.424Z,6.73
2022-11-12T02:10:38.512Z,7.03
2022-11-12T02:13:42.443Z,7.03
2022-11-12T02:16:32.884Z,6.90
2022-11-12T02:19:19.735Z,7.77
2022-11-12T02:22:04.905Z,7.57
2022-11-12T02:24:49.916Z,7.13
2022-11-12T02:27:35.442Z,7.20
2022-11-12T02:30:30.756Z,7.73
2022-11-12T02:33:15.981Z,6.53
2022-11-12T02:36:00.858Z,7.20
2022-11-12T02:38:46.118Z,7.63
2022-11-12T02:41:31.201Z,7.20
2022-11-12T02:44:16.390Z,6.90
2022-11-12T02:47:01.308Z,7.50
2022-11-12T02:49:46.488Z,6.70
2022-11-12T02:52:32.477Z,7.17
2022-11-12T02:55:17.810Z,7.23
2022-11-12T02:58:03.695Z,7.50
2022-11-12T03:00:49.054Z,8.03
2022-11-12T03:03:34.378Z,7.17
2022-11-12T03:06:19.233Z,8.17
2022-11-12T03:09:04.617Z,7.20
2022-11-12T03:11:49.906Z,7.90
2022-11-12T03:14:34.877Z,6.80
2022-11-12T03:17:19.899Z,7.03
2022-11-12T03:20:05.236Z,7.83
2022-11-12T03:22:56.518Z,8.10
2022-11-12T03:25:42.431Z,8.00
2022-11-12T03:28:27.671Z,8.47
2022-11-12T03:31:12.955Z,7.83
2022-11-12T03:33:58.403Z,8.47
2022-11-12T03:36:43.661Z,9.00
2022-11-12T03:39:28.993Z,7.93
2022-11-12T03:42:13.902Z,8.27
2022-11-12T03:44:58.863Z,8.00
2022-11-12T03:47:44.849Z,8.50
2022-11-12T03:50:30.461Z,8.20
2022-11-12T03:53:16.122Z,8.27
2022-11-12T03:56:01.391Z,8.80
2022-11-12T03:58:46.465Z,8.90
2022-11-12T04:01:31.393Z,8.33
2022-11-12T04:04:16.863Z,8.50
2022-11-12T04:07:21.734Z,9.03
2022-11-12T04:10:06.867Z,9.20
2022-11-12T04:13:10.960Z,8.80
2022-11-12T04:16:18.960Z,9.17
2022-11-12T04:19:23.710Z,9.67
2022-11-12T04:22:10.674Z,8.93
2022-11-12T04:25:15.301Z,9.40
2022-11-12T04:28:00.496Z,9.17
2022-11-12T04:30:45.565Z,9.97
2022-11-12T04:33:30.884Z,9.23
2022-11-12T04:36:15.954Z,8.93
2022-11-12T04:39:00.989Z,9.20
2022-11-12T04:42:04.804Z,9.97
2022-11-12T04:45:05.329Z,9.17
2022-11-12T04:47:50.574Z,8.87
2022-11-12T04:50:36.411Z,10.00
2022-11-12T04:53:21.359Z,9.60
2022-11-12T04:56:06.316Z,10.10
2022-11-12T04:58:51.269Z,9.47
2022-11-12T05:01:36.215Z,9.23
2022-11-12T05:04:21.976Z,8.87
2022-11-12T05:07:07.292Z,9.47
2022-11-12T05:09:52.530Z,9.47
2022-11-12T05:12:37.767Z,10.07
2022-11-12T05:15:23.204Z,9.87
2022-11-12T05:18:08.297Z,9.43
2022-11-12T05:20:53.600Z,10.43
2022-11-12T05:23:38.911Z,10.13
2022-11-12T05:26:23.828Z,10.67
2022-11-12T05:29:09.146Z,10.40
2022-11-12T05:31:55.185Z,9.13
2022-11-12T05:34:40.397Z,10.47
2022-11-12T05:37:25.890Z,10.47
2022-11-12T05:40:11.458Z,10.30
2022-11-12T05:42:59.017Z,11.60
2022-11-12T05:45:44.488Z,10.67
2022-11-12T05:48:30.293Z,11.10
2022-11-12T05:51:16.112Z,9.97
2022-11-12T05:54:01.325Z,10.90
2022-11-12T05:56:46.906Z,10.10
2022-11-12T05:59:32.160Z,10.20
2022-11-12T06:02:17.427Z,10.50
2022-11-12T06:05:02.810Z,10.43
2022-11-12T06:07:48.007Z,10.57
2022-11-12T06:10:33.257Z,9.80
2022-11-12T06:13:19.129Z,10.10
2022-11-12T06:16:04.428Z,10.23
2022-11-12T06:18:49.538Z,10.03
2022-11-12T06:21:34.843Z,10.13
2022-11-12T06:24:20.175Z,9.90
2022-11-12T06:27:05.362Z,9.80
2022-11-12T06:29:50.495Z,9.50
2022-11-12T06:32:35.580Z,9.67
2022-11-12T06:35:20.841Z,9.87
2022-11-12T06:38:05.899Z,10.03
2022-11-12T06:40:51.085Z,10.33
2022-11-12T06:43:36.448Z,9.30
2022-11-12T06:46:21.358Z,9.50
2022-11-12T06:49:06.711Z,9.87
2022-11-12T06:51:51.997Z,10.03
2022-11-12T06:54:37.013Z,9.47
2022-11-12T06:57:22.018Z,9.67
2022-11-12T07:00:07.232Z,11.47
2022-11-12T07:02:52.493Z,10.67
2022-11-12T07:05:38.397Z,10.87
2022-11-12T07:08:23.518Z,11.07
2022-11-12T07:11:09.479Z,11.33
2022-11-12T07:13:54.406Z,11.03
2022-11-12T07:16:39.825Z,10.80
2022-11-12T07:19:25.010Z,10.20
2022-11-12T07:22:10.285Z,9.77
2022-11-12T07:24:55.096Z,10.67
2022-11-12T07:27:40.168Z,10.97
2022-11-12T07:30:25.462Z,10.37
2022-11-12T07:33:10.542Z,12.20
2022-11-12T07:35:59.016Z,12.03
2022-11-12T07:38:44.375Z,12.43
2022-11-12T07:41:29.729Z,11.73
2022-11-12T07:44:14.856Z,10.57
2022-11-12T07:46:59.728Z,10.90
2022-11-12T07:49:44.697Z,11.00
2022-11-12T07:52:31.893Z,10.00
2022-11-12T07:55:16.960Z,10.27
2022-11-12T07:58:02.095Z,9.67
2022-11-12T08:00:47.406Z,10.17
2022-11-12T08:03:32.572Z,10.03
2022-11-12T08:06:17.529Z,10.00
2022-11-12T08:09:05.352Z,9.70
2022-11-12T08:11:50.616Z,9.20
2022-11-12T08:14:35.707Z,9.40
2022-11-12T08:17:21.063Z,8.93
2022-11-12T08:20:06.673Z,10.37
2022-11-12T08:22:51.823Z,9.03
2022-11-12T08:25:37.153Z,9.57
2022-11-12T08:28:21.978Z,8.97
2022-11-12T08:31:11.983Z,9.17
2022-11-12T08:33:57.190Z,9.10
2022-11-12T08:36:42.338Z,10.17
2022-11-12T08:39:27.823Z,9.60
2022-11-12T08:42:12.859Z,10.00
2022-11-12T08:44:57.932Z,10.10
2022-11-12T08:47:42.864Z,11.33
2022-11-12T08:50:28.396Z,11.13
2022-11-12T08:53:13.999Z,10.43
2022-11-12T08:55:59.651Z,11.60
2022-11-12T08:58:44.783Z,11.10
2022-11-12T09:01:29.802Z,11.47
2022-11-12T09:04:15.385Z,11.70
2022-11-12T09:07:01.994Z,11.00
2022-11-12T09:09:47.212Z,11.33
2022-11-12T09:12:32.985Z,9.97
2022-11-12T09:18:23.616Z,11.17
2022-11-12T09:21:10.799Z,11.80
2022-11-12T09:23:56.008Z,12.23
2022-11-12T09:26:41.572Z,12.47
2022-11-12T09:29:26.963Z,12.73
2022-11-12T09:32:12.139Z,12.03
2022-11-12T09:34:57.381Z,12.83
2022-11-12T09:37:42.617Z,12.03
2022-11-12T09:40:57.331Z,12.10
2022-11-12T09:43:49.340Z,11.40
2022-11-12T09:46:37.607Z,11.70
2022-11-12T09:49:29.144Z,13.43
2022-11-12T09:52:20.603Z,12.60
2022-11-12T09:55:15.122Z,12.50
2022-11-12T09:58:00.604Z,12.50
2022-11-12T10:01:08.856Z,12.37
2022-11-12T10:03:56.930Z,12.23
2022-11-12T10:06:48.540Z,12.77
2022-11-12T10:09:42.398Z,13.03
2022-11-12T10:12:32.050Z,14.57
2022-11-12T10:15:35.853Z,13.30
2022-11-12T10:18:30.210Z,14.13
2022-11-12T10:21:33.988Z,13.27
2022-11-12T10:24:20.961Z,13.13
2022-11-12T10:27:18.158Z,13.73
2022-11-12T10:30:05.187Z,13.60
2022-11-12T10:32:51.157Z,13.70
2022-11-12T10:35:36.700Z,13.50
2022-11-12T10:38:26.341Z,15.43
2022-11-12T10:41:18.784Z,15.20
2022-11-12T10:44:05.306Z,14.77
2022-11-12T10:46:50.790Z,14.47
2022-11-12T10:49:35.836Z,14.07
2022-11-12T10:52:21.978Z,14.33
2022-11-12T10:55:15.704Z,13.50
2022-11-12T10:58:09.682Z,13.43
2022-11-12T11:00:59.368Z,15.10
2022-11-12T11:03:45.994Z,15.53
2022-11-12T11:06:30.894Z,14.37
2022-11-12T11:09:17.748Z,13.90
2022-11-12T11:12:03.196Z,15.30
2022-11-12T11:15:05.123Z,13.37
2022-11-12T11:17:50.553Z,14.77
2022-11-12T11:20:58.348Z,14.87
2022-11-12T11:23:43.585Z,14.87
2022-11-12T11:26:32.983Z,14.40
2022-11-12T11:29:27.369Z,15.13
2022-11-12T11:32:24.623Z,13.83
2022-11-12T11:35:14.332Z,14.23
2022-11-12T11:37:59.243Z,15.37
2022-11-12T11:40:56.076Z,13.83
2022-11-12T11:44:00.302Z,14.80
2022-11-12T11:46:53.398Z,15.17
2022-11-12T11:49:54.652Z,13.93
2022-11-12T11:52:39.991Z,14.03
2022-11-12T11:55:25.124Z,15.27
2022-11-12T11:58:30.244Z,12.43
2022-11-12T12:01:22.090Z,13.63
2022-11-12T12:04:22.326Z,14.33
2022-11-12T12:07:22.339Z,14.17
2022-11-12T12:10:13.844Z,12.90
2022-11-12T12:13:17.355Z,15.23
2022-11-12T12:16:17.862Z,14.83
2022-11-12T12:19:21.488Z,14.00
2022-11-12T12:22:10.514Z,13.63
2022-11-12T12:25:07.694Z,14.67
2022-11-12T12:27:59.971Z,13.47
2022-11-12T12:30:47.766Z,15.47
2022-11-12T12:33:49.917Z,14.13
2022-11-12T12:36:39.605Z,14.17
2022-11-12T12:39:35.492Z,14.10
2022-11-12T12:42:34.407Z,14.27
2022-11-12T12:45:55.085Z,14.93
2022-11-12T12:48:42.038Z,14.03
2022-11-12T12:51:29.127Z,15.93
2022-11-12T12:54:32.825Z,14.70
2022-11-12T12:57:28.658Z,14.13
2022-11-12T13:00:32.257Z,15.73
2022-11-12T13:03:50.439Z,15.40
2022-11-12T13:06:52.091Z,14.10
2022-11-12T13:09:36.985Z,13.50
2022-11-12T13:12:42.208Z,15.33
2022-11-12T13:15:41.717Z,14.43
2022-11-12T13:18:38.690Z,14.97
2022-11-12T13:21:23.730Z,15.60
2022-11-12T13:24:12.180Z,15.93
2022-11-12T13:26:58.769Z,16.17
2022-11-12T13:29:44.013Z,15.93
2022-11-12T13:32:36.075Z,14.30
2022-11-12T13:35:34.946Z,14.03
2022-11-12T13:38:20.353Z,14.70
2022-11-12T13:41:09.605Z,14.37
2022-11-12T13:43:56.215Z,15.03
2022-11-12T13:46:41.584Z,16.77
2022-11-12T13:49:27.096Z,15.57
2022-11-12T13:52:16.129Z,15.10
2022-11-12T13:55:02.480Z,15.73
2022-11-12T13:57:51.314Z,14.93
2022-11-12T14:00:36.432Z,14.90
2022-11-12T14:03:22.059Z,15.97
2022-11-12T14:06:18.183Z,15.27
2022-11-12T14:09:03.194Z,15.57
2022-11-12T14:11:54.787Z,15.53
2022-11-12T14:14:54.928Z,16.97
2022-11-12T14:18:00.256Z,15.40
2022-11-12T14:20:45.481Z,15.37
2022-11-12T14:23:30.513Z,17.60
2022-11-12T14:26:33.210Z,16.00
2022-11-12T14:29:19.390Z,17.67
2022-11-12T14:32:08.882Z,16.87
2022-11-12T14:34:53.864Z,16.20
2022-11-12T14:37:43.420Z,16.60
2022-11-12T14:40:30.456Z,16.70
2022-11-12T14:43:28.488Z,16.57
2022-11-12T14:46:32.375Z,16.63
2022-11-12T14:49:17.565Z,17.23
2022-11-12T14:52:08.841Z,17.63
2022-11-12T14:54:55.884Z,17.37
2022-11-12T14:57:41.351Z,16.73
2022-11-12T15:00:32.450Z,16.70
2022-11-12T15:03:19.871Z,15.63
2022-11-12T15:06:05.130Z,16.97
2022-11-12T15:08:56.627Z,16.20
2022-11-12T15:11:44.715Z,16.47
2022-11-12T15:14:30.139Z,16.90
2022-11-12T15:17:29.397Z,17.80
2022-11-12T15:20:15.616Z,17.20
2022-11-12T15:23:00.515Z,16.17
2022-11-12T15:25:45.659Z,16.27
2022-11-12T15:28:30.992Z,16.67
2022-11-12T15:31:21.491Z,17.87
2022-11-12T15:34:25.727Z,17.07
2022-11-12T15:37:10.669Z,18.17
2022-11-12T15:39:58.142Z,16.77
2022-11-12T15:42:43.382Z,17.77
2022-11-12T15:45:28.798Z,16.93
2022-11-12T15:48:13.890Z,17.47
2022-11-12T15:50:59.281Z,16.33
2022-11-12T15:53:44.348Z,16.77
2022-11-12T15:56:29.837Z,16.67
2022-11-12T15:59:15.737Z,16.30
2022-11-12T16:02:00.704Z,16.13
2022-11-12T16:04:46.045Z,16.47
2022-11-12T16:07:31.317Z,16.57
2022-11-12T16:10:17.543Z,16.97
2022-11-12T16:13:03.958Z,16.97
2022-11-12T16:15:50.236Z,16.37
2022-11-12T16:18:35.392Z,15.23
2022-11-12T16:21:21.190Z,15.43
2022-11-12T16:24:06.733Z,14.80
2022-11-12T16:26:52.359Z,13.70
2022-11-12T16:29:37.521Z,13.93
2022-11-12T16:32:22.496Z,13.47
2022-11-12T16:35:08.332Z,14.37
2022-11-12T16:37:54.483Z,14.03
2022-11-12T16:40:40.229Z,13.83
2022-11-12T16:43:25.723Z,14.10
2022-11-12T16:46:26.180Z,13.57
2022-11-12T16:49:12.351Z,13.00
2022-11-12T16:51:58.931Z,13.40
2022-11-12T16:54:44.420Z,13.50
2022-11-12T16:57:29.488Z,13.20
2022-11-12T17:00:16.155Z,13.10
2022-11-12T17:03:01.171Z,12.73
2022-11-12T17:05:51.027Z,12.77
2022-11-12T17:08:36.116Z,11.30
2022-11-12T17:11:21.898Z,8.43
2022-11-12T17:14:07.669Z,10.13
2022-11-12T17:16:53.123Z,11.93
2022-11-12T17:19:38.251Z,10.83
2022-11-12T17:22:23.430Z,7.60
2022-11-12T17:25:08.694Z,7.50
2022-11-12T17:27:54.022Z,8.33
2022-11-12T17:30:39.336Z,11.00
2022-11-12T17:33:24.773Z,12.00
2022-11-12T17:36:11.678Z,9.37
2022-11-12T17:38:57.745Z,10.40
2022-11-12T17:41:42.851Z,10.93
2022-11-12T17:44:28.335Z,12.17
2022-11-12T17:47:13.395Z,9.97
2022-11-12T17:49:58.774Z,10.83
2022-11-12T17:52:44.158Z,11.17
2022-11-12T17:55:29.597Z,11.63
2022-11-12T17:58:15.019Z,11.07
2022-11-12T18:01:06.640Z,11.17
2022-11-12T18:03:53.128Z,11.97
2022-11-12T18:06:38.748Z,10.57
2022-11-12T18:09:24.010Z,11.57
2022-11-12T18:12:09.385Z,11.77
2022-11-12T18:14:54.563Z,12.17
2022-11-12T18:17:39.691Z,12.13
2022-11-12T18:20:25.212Z,13.03
2022-11-12T18:23:10.381Z,12.70
2022-11-12T18:25:55.383Z,13.50
2022-11-12T18:28:41.592Z,12.30
2022-11-12T18:31:27.554Z,13.47
2022-11-12T18:34:15.775Z,12.80
2022-11-12T18:37:00.774Z,17.10
2022-11-12T18:39:46.122Z,12.63
2022-11-12T18:42:31.742Z,13.90
2022-11-12T18:45:17.078Z,14.63
2022-11-12T18:48:04.188Z,13.97
2022-11-12T18:50:49.384Z,14.97
2022-11-12T18:53:35.619Z,14.27
2022-11-12T18:56:21.954Z,14.47
2022-11-12T18:59:06.803Z,14.40
2022-11-12T19:01:51.782Z,14.97
2022-11-12T19:04:41.119Z,14.77
2022-11-12T19:07:29.872Z,13.80
2022-11-12T19:10:15.294Z,14.13
2022-11-12T19:13:03.870Z,14.10
2022-11-12T19:15:48.769Z,16.37
2022-11-12T19:18:33.891Z,16.23
2022-11-12T19:21:20.329Z,14.03
2022-11-12T19:24:05.971Z,14.33
2022-11-12T19:26:51.573Z,14.17
2022-11-12T19:29:36.714Z,13.07
2022-11-12T19:32:22.309Z,12.77
2022-11-12T19:35:07.596Z,12.07
2022-11-12T19:37:52.583Z,12.73
2022-11-12T19:40:37.972Z,12.33
2022-11-12T19:43:24.574Z,13.57
2022-11-12T19:46:10.220Z,14.57
2022-11-12T19:48:56.233Z,14.27
2022-11-12T19:51:41.529Z,14.10
2022-11-12T19:54:27.154Z,13.27
2022-11-12T19:57:11.970Z,15.07
2022-11-12T19:59:57.208Z,16.40
2022-11-12T20:02:42.600Z,15.10
2022-11-12T20:05:27.550Z,15.30
2022-11-12T20:08:13.041Z,15.40
2022-11-12T20:10:58.385Z,15.57
2022-11-12T20:13:43.696Z,16.37
2022-11-12T20:16:28.730Z,15.43
2022-11-12T20:19:14.001Z,14.40
2022-11-12T20:21:59.023Z,15.03
2022-11-12T20:24:44.113Z,14.73
2022-11-12T20:27:29.303Z,15.67
2022-11-12T20:30:14.378Z,14.40
2022-11-12T20:32:59.511Z,14.50
2022-11-12T20:35:45.491Z,14.50
2022-11-12T20:38:30.940Z,13.50
2022-11-12T20:41:20.327Z,10.60
2022-11-12T20:44:05.586Z,10.93
2022-11-12T20:46:50.640Z,10.80
2022-11-12T20:49:35.943Z,10.33
2022-11-12T20:52:21.086Z,10.43
2022-11-12T20:55:06.727Z,10.53
2022-11-12T20:57:51.939Z,10.20
2022-11-12T21:00:38.864Z,9.93
2022-11-12T21:03:24.214Z,11.20
2022-11-12T21:06:11.504Z,10.57
2022-11-12T21:09:00.423Z,10.03
2022-11-12T21:11:45.820Z,8.47
2022-11-12T21:14:30.765Z,9.67
2022-11-12T21:17:16.174Z,9.70
2022-11-12T21:20:01.238Z,10.23
2022-11-12T21:22:46.325Z,10.07
2022-11-12T21:25:35.221Z,9.13
2022-11-12T21:28:20.545Z,10.43
2022-11-12T21:31:06.939Z,7.70
2022-11-12T21:33:53.156Z,9.40
2022-11-12T21:36:38.327Z,7.80
2022-11-12T21:39:23.284Z,9.17
2022-11-12T21:42:08.489Z,8.73
2022-11-12T21:44:53.627Z,9.63
2022-11-12T21:47:39.362Z,9.27
2022-11-12T21:50:24.544Z,10.23
2022-11-12T21:53:09.630Z,11.07
2022-11-12T21:56:00.538Z,11.50
2022-11-12T21:58:45.766Z,11.73
2022-11-12T22:01:32.614Z,12.03
2022-11-12T22:04:18.578Z,11.37
2022-11-12T22:07:04.264Z,11.67
2022-11-12T22:09:55.380Z,12.57
2022-11-12T22:12:58.562Z,12.23
2022-11-12T22:15:47.130Z,11.40
2022-11-12T22:18:35.195Z,12.43
2022-11-12T22:21:21.379Z,12.97
2022-11-12T22:24:06.973Z,13.20
2022-11-12T22:26:52.013Z,13.23
2022-11-12T22:29:37.067Z,12.60
2022-11-12T22:32:21.995Z,12.20
2022-11-12T22:35:07.612Z,12.47
2022-11-12T22:37:54.393Z,12.47
2022-11-12T22:40:39.364Z,11.73
2022-11-12T22:43:24.797Z,10.97
2022-11-12T22:46:11.473Z,11.07
2022-11-12T22:48:57.028Z,10.97
2022-11-12T22:51:42.348Z,10.00
2022-11-12T22:54:27.399Z,11.87
2022-11-12T22:57:12.548Z,11.93
2022-11-12T22:59:58.577Z,11.57
2022-11-12T23:02:47.526Z,11.63
2022-11-12T23:05:33.215Z,11.80
2022-11-12T23:08:18.276Z,12.67
2022-11-12T23:11:04.975Z,12.40
2022-11-12T23:13:49.989Z,12.27
2022-11-12T23:16:35.886Z,12.03
2022-11-12T23:19:20.989Z,9.90
2022-11-12T23:22:08.033Z,10.50
2022-11-12T23:24:53.178Z,9.73
2022-11-12T23:27:38.377Z,11.00
2022-11-12T23:30:23.537Z,11.17
2022-11-12T23:33:08.948Z,12.87
2022-11-12T23:35:53.838Z,13.27
2022-11-12T23:38:38.956Z,13.33
2022-11-12T23:41:25.928Z,13.23
2022-11-12T23:44:10.892Z,13.63
2022-11-12T23:46:56.032Z,13.60
2022-11-12T23:49:40.878Z,13.83
2022-11-12T23:52:25.944Z,13.03
2022-11-12T23:55:11.080Z,13.07
2022-11-12T23:57:56.321Z,11.70
